Aeroporto :
LOGIN :

Iscrizione | Disclaimer

   EN    FR    IT 

 










Sommario :    VFR   VFR Marginale   IFR   IFR Intensivo   IFR Molto Intensivo
Visibilità : 
Base nubi : 
>= 8 km
>= 3000ft
5 / 8 km
1000 / 3000 ft
1500m / 5 km
500 / 1000 ft
800 / 1500m
200 / 500 ft
< 800m
< 200 ft
Simboli :   Temporali  Nebbia  Neve Forte  Precipitazioni Forti  Vento > 20 kt
SIGMETs :   Varie  Temporali  Ghiacco  Turbolenza  Onda orograficha  Ceneri Vulcaniche






- Altitudine del aeroporto : 62 ft
- Codice IATA : TAN


GMTT - Tanger Ibn Batouta

ULTIMO METAR :
  • 290730Z 09013KT CAVOK 23/15 Q1013 NOSIG

METARs OBSOLETI :
  • 290700Z 10010KT CAVOK 21/14 Q1013 NOSIG
  • 290630Z 09011KT CAVOK 21/14 Q1013 NOSIG
  • 290600Z 09009KT CAVOK 21/14 Q1012 NOSIG
  • 290530Z 09010KT CAVOK 21/14 Q1012 NOSIG
  • 290500Z 10010KT CAVOK 21/13 Q1012 NOSIG

TAF TAF GMTT
Valido dal 29 a 06 ore il 30 a 12 ore UTC


290500Z 2906/3012 08015KT CAVOK
PROB30
TEMPO 2906/2919 09020G30KT



MetMap, La meteo Aeronautica in un colpo d'occhio ! - Copyright ORBIFLY Dicembre 2007 - Disclaimer

ORBIFLY MET'MAP TEAM :

Programmazione e sviluppo : Alexandra Zaïnal
Concezione : Baudouin d'Aumeries
Aiuto per la programmazione : Marc-Olivier Méhu
Supporto tecnico e logistico : Manuel Goepfert
Aiuto per la traduzione : Arnaldo La Scala

Contatto : metmap@orbifly.com




FONTI E CREDITI :

   NOAA